Terminal Aerodrome Forecast
Issued by NWS

Home | Current Version | Previous Version | Text Only | Print | Product List | Glossary On
Versions: 1 2 3 4 5 6 7 8 9 10 11 12 13 14 15 16
000
FTUS43 KGRB 212337
TAFRHI
TAF
KRHI 212337Z 2200/2224 14005KT P6SM BKN020
     FM220400 16006KT 6SM BR VCTS BKN080CB
     FM220600 18005KT 5SM BR VCTS BKN090CB WS020/24035KT
     FM221200 19005KT 4SM BR BKN035
     FM221400 20009G14KT P6SM SCT150=

USA.gov is the U.S. government's official web portal to all federal, state and local government web resources and services.